EZY21XG DTNH-EGKK
Flight info
| Callsign | EZY21XG |
|---|---|
| Flight time | 2h 40m |
| Altitude | 36000 |
| Route | VAXAL1C VAXAL A411 TUC UA725 OSMAR DCT PIRIX DCT UPDUT DCT CORSI DCT OMEDA DCT MERLU DCT PIGOS DCT BARSO DCT OKTET DCT GIPNO DCT BULOL DCT IDAVO DCT BAGBI DCT SIZZA DCT LAULY DCT BRY DCT CLM DCT KOPOR DCT KESAX DCT KUNAV |
| Aircraft | A320/M-SDE2E3FGHIJ1RWXYZ/LB1 |
Departure
| Time | 2026-05-07 11:27 |
|---|---|
| Airport | Enfidha - Hammamet International Airport (DTNH) |
Arrival
| Time | 2026-05-07 14:08 |
|---|---|
| Airport | London Gatwick Airport (EGKK) |
| Time | Latitude | Longitude | Altitude | Speed | Heading |
|---|---|---|---|---|---|
| 2026-05-07 11:05 | 36.08175 | 10.43969 | 16 ft | 0 kts | 330° |
| 2026-05-07 11:18 | 36.08163 | 10.43978 | 18 ft | 4 kts | 331° |
| 2026-05-07 11:18 | 36.08140 | 10.43994 | 17 ft | 4 kts | 327° |
| 2026-05-07 11:19 | 36.08121 | 10.44011 | 29 ft | 4 kts | 314° |
| 2026-05-07 11:19 | 36.08110 | 10.44036 | 29 ft | 4 kts | 247° |
| 2026-05-07 11:19 | 36.08126 | 10.44060 | 29 ft | 3 kts | 224° |
| 2026-05-07 11:19 | 36.08129 | 10.44064 | 29 ft | 1 kts | 225° |
| 2026-05-07 11:21 | 36.08116 | 10.44047 | 30 ft | 7 kts | 225° |
| 2026-05-07 11:21 | 36.08069 | 10.43990 | 30 ft | 9 kts | 225° |
| 2026-05-07 11:22 | 36.08046 | 10.43926 | 30 ft | 8 kts | 259° |
| 2026-05-07 11:22 | 36.08044 | 10.43827 | 30 ft | 15 kts | 270° |
| 2026-05-07 11:22 | 36.08045 | 10.43706 | 30 ft | 13 kts | 270° |
| 2026-05-07 11:22 | 36.08045 | 10.43595 | 30 ft | 14 kts | 270° |
| 2026-05-07 11:23 | 36.08045 | 10.43453 | 30 ft | 19 kts | 270° |
| 2026-05-07 11:23 | 36.08046 | 10.43281 | 30 ft | 20 kts | 270° |
| 2026-05-07 11:23 | 36.08047 | 10.43108 | 29 ft | 21 kts | 270° |
| 2026-05-07 11:23 | 36.08049 | 10.42918 | 24 ft | 23 kts | 270° |
| 2026-05-07 11:24 | 36.08048 | 10.42759 | 25 ft | 11 kts | 270° |
| 2026-05-07 11:24 | 36.08014 | 10.42703 | 27 ft | 6 kts | 196° |
| 2026-05-07 11:24 | 36.07957 | 10.42702 | 29 ft | 11 kts | 177° |
| 2026-05-07 11:24 | 36.07860 | 10.42700 | 30 ft | 14 kts | 181° |
| 2026-05-07 11:25 | 36.07772 | 10.42686 | 31 ft | 11 kts | 216° |
| 2026-05-07 11:25 | 36.07751 | 10.42585 | 32 ft | 14 kts | 270° |
| 2026-05-07 11:25 | 36.07752 | 10.42451 | 34 ft | 17 kts | 271° |
| 2026-05-07 11:25 | 36.07753 | 10.42289 | 32 ft | 20 kts | 270° |
| 2026-05-07 11:26 | 36.07675 | 10.42207 | 32 ft | 15 kts | 179° |
| 2026-05-07 11:26 | 36.07587 | 10.42224 | 32 ft | 12 kts | 129° |
| 2026-05-07 11:26 | 36.07582 | 10.42385 | 29 ft | 42 kts | 90° |
| 2026-05-07 11:26 | 36.07580 | 10.43038 | 31 ft | 107 kts | 90° |
| 2026-05-07 11:27 | 36.07575 | 10.44176 | 32 ft | 155 kts | 89° |
| 2026-05-07 11:27 | 36.07586 | 10.45585 | 503 ft | 160 kts | 78° |
| 2026-05-07 11:27 | 36.08090 | 10.46776 | 1213 ft | 160 kts | 41° |
| 2026-05-07 11:27 | 36.09106 | 10.47323 | 1853 ft | 168 kts | 8° |
| 2026-05-07 11:28 | 36.10335 | 10.47073 | 2158 ft | 192 kts | 345° |
| 2026-05-07 11:28 | 36.11667 | 10.46471 | 2456 ft | 216 kts | 341° |
| 2026-05-07 11:28 | 36.13134 | 10.45760 | 2830 ft | 240 kts | 343° |
| 2026-05-07 11:28 | 36.14825 | 10.45629 | 3446 ft | 251 kts | 12° |
| 2026-05-07 11:29 | 36.16536 | 10.46166 | 4287 ft | 255 kts | 13° |
| 2026-05-07 11:29 | 36.18273 | 10.46725 | 5110 ft | 261 kts | 12° |
| 2026-05-07 11:29 | 36.20056 | 10.47300 | 5886 ft | 267 kts | 12° |
| 2026-05-07 11:29 | 36.21880 | 10.47886 | 6614 ft | 273 kts | 11° |
| 2026-05-07 11:30 | 36.23742 | 10.48482 | 7330 ft | 279 kts | 11° |
| 2026-05-07 11:30 | 36.25640 | 10.49090 | 8046 ft | 283 kts | 11° |
| 2026-05-07 11:30 | 36.27576 | 10.49546 | 8747 ft | 285 kts | 359° |
| 2026-05-07 11:30 | 36.29541 | 10.49374 | 9448 ft | 282 kts | 344° |
| 2026-05-07 11:31 | 36.31403 | 10.48605 | 10101 ft | 284 kts | 334° |
| 2026-05-07 11:31 | 36.33288 | 10.47679 | 10301 ft | 306 kts | 334° |
| 2026-05-07 11:31 | 36.35346 | 10.46672 | 10513 ft | 327 kts | 334° |
| 2026-05-07 11:31 | 36.37501 | 10.45627 | 11030 ft | 336 kts | 335° |
| 2026-05-07 11:32 | 36.41939 | 10.43520 | 12304 ft | 346 kts | 334° |
| 2026-05-07 11:32 | 36.44212 | 10.42460 | 12955 ft | 350 kts | 334° |
| 2026-05-07 11:32 | 36.46509 | 10.41387 | 13591 ft | 354 kts | 334° |
| 2026-05-07 11:33 | 36.48823 | 10.40303 | 14182 ft | 358 kts | 334° |
| 2026-05-07 11:33 | 36.51171 | 10.39201 | 14786 ft | 363 kts | 334° |
| 2026-05-07 11:33 | 36.53516 | 10.38099 | 15396 ft | 365 kts | 334° |
| 2026-05-07 11:33 | 36.55911 | 10.36972 | 16005 ft | 369 kts | 334° |
| 2026-05-07 11:34 | 36.58321 | 10.35834 | 16585 ft | 372 kts | 334° |
| 2026-05-07 11:34 | 36.60763 | 10.34677 | 17128 ft | 376 kts | 333° |
| 2026-05-07 11:34 | 36.63195 | 10.33525 | 17590 ft | 379 kts | 334° |
| 2026-05-07 11:34 | 36.65700 | 10.32337 | 18129 ft | 382 kts | 334° |
| 2026-05-07 11:35 | 36.68167 | 10.31165 | 18644 ft | 385 kts | 334° |
| 2026-05-07 11:35 | 36.70688 | 10.29968 | 19183 ft | 388 kts | 333° |
| 2026-05-07 11:35 | 36.73222 | 10.28766 | 19713 ft | 390 kts | 333° |
| 2026-05-07 11:35 | 36.75776 | 10.27558 | 20227 ft | 392 kts | 333° |
| 2026-05-07 11:36 | 36.78304 | 10.26361 | 20707 ft | 395 kts | 333° |
| 2026-05-07 11:36 | 36.80881 | 10.25138 | 21172 ft | 397 kts | 333° |
| 2026-05-07 11:36 | 36.83468 | 10.23920 | 21632 ft | 396 kts | 333° |
| 2026-05-07 11:36 | 36.86096 | 10.22819 | 22030 ft | 403 kts | 339° |
| 2026-05-07 11:37 | 36.88831 | 10.21960 | 22418 ft | 407 kts | 340° |
| 2026-05-07 11:37 | 36.91596 | 10.21097 | 22868 ft | 410 kts | 340° |
| 2026-05-07 11:37 | 36.94367 | 10.20228 | 23242 ft | 413 kts | 340° |
| 2026-05-07 11:37 | 36.97174 | 10.19355 | 23688 ft | 416 kts | 339° |
| 2026-05-07 11:38 | 36.99952 | 10.18492 | 24129 ft | 417 kts | 340° |
| 2026-05-07 11:38 | 37.02779 | 10.17621 | 24513 ft | 420 kts | 339° |
| 2026-05-07 11:38 | 37.05612 | 10.16744 | 24881 ft | 419 kts | 339° |
| 2026-05-07 11:38 | 37.08454 | 10.15856 | 25208 ft | 422 kts | 339° |
| 2026-05-07 11:39 | 37.11311 | 10.14965 | 25557 ft | 421 kts | 339° |
| 2026-05-07 11:39 | 37.14176 | 10.14080 | 25830 ft | 426 kts | 338° |
| 2026-05-07 11:39 | 37.17070 | 10.13192 | 26171 ft | 428 kts | 338° |
| 2026-05-07 11:39 | 37.19935 | 10.12303 | 26553 ft | 429 kts | 338° |
| 2026-05-07 11:40 | 37.22843 | 10.11390 | 26897 ft | 434 kts | 337° |
| 2026-05-07 11:40 | 37.25767 | 10.10461 | 27261 ft | 432 kts | 337° |
| 2026-05-07 11:40 | 37.28690 | 10.09538 | 27594 ft | 430 kts | 336° |
| 2026-05-07 11:40 | 37.31607 | 10.08619 | 27807 ft | 432 kts | 336° |
| 2026-05-07 11:41 | 37.34532 | 10.07694 | 28065 ft | 435 kts | 336° |
| 2026-05-07 11:41 | 37.37469 | 10.06772 | 28334 ft | 436 kts | 336° |
| 2026-05-07 11:41 | 37.40419 | 10.05850 | 28611 ft | 437 kts | 336° |
| 2026-05-07 11:41 | 37.43333 | 10.04941 | 28876 ft | 437 kts | 335° |
| 2026-05-07 11:42 | 37.46294 | 10.04009 | 29127 ft | 439 kts | 335° |
| 2026-05-07 11:42 | 37.49260 | 10.03068 | 29402 ft | 440 kts | 335° |
| 2026-05-07 11:42 | 37.52241 | 10.02114 | 29637 ft | 440 kts | 334° |
| 2026-05-07 11:42 | 37.55222 | 10.01162 | 29904 ft | 443 kts | 334° |
| 2026-05-07 11:43 | 37.58221 | 10.00203 | 30218 ft | 445 kts | 334° |
| 2026-05-07 11:43 | 37.61235 | 9.99239 | 30550 ft | 446 kts | 334° |
| 2026-05-07 11:43 | 37.64236 | 9.98290 | 30968 ft | 442 kts | 334° |
| 2026-05-07 11:43 | 37.67190 | 9.97367 | 31282 ft | 441 kts | 334° |
| 2026-05-07 11:44 | 37.70172 | 9.96423 | 31597 ft | 440 kts | 333° |
| 2026-05-07 11:44 | 37.73136 | 9.95478 | 31949 ft | 438 kts | 333° |
| 2026-05-07 11:44 | 37.76065 | 9.94547 | 32252 ft | 438 kts | 333° |
| 2026-05-07 11:44 | 37.79015 | 9.93611 | 32581 ft | 436 kts | 333° |
| 2026-05-07 11:45 | 37.81955 | 9.92682 | 32910 ft | 435 kts | 332° |
| 2026-05-07 11:45 | 37.84889 | 9.91755 | 33216 ft | 433 kts | 332° |
| 2026-05-07 11:45 | 37.87819 | 9.90823 | 33476 ft | 433 kts | 332° |
| 2026-05-07 11:45 | 37.90738 | 9.89889 | 33755 ft | 432 kts | 332° |
| 2026-05-07 11:46 | 37.93657 | 9.88953 | 34050 ft | 431 kts | 332° |
| 2026-05-07 11:46 | 37.96568 | 9.88017 | 34347 ft | 430 kts | 332° |
| 2026-05-07 11:46 | 37.99469 | 9.87084 | 34625 ft | 429 kts | 331° |
| 2026-05-07 11:46 | 38.02326 | 9.86166 | 34880 ft | 428 kts | 331° |
| 2026-05-07 11:47 | 38.05225 | 9.85235 | 35080 ft | 429 kts | 331° |
| 2026-05-07 11:47 | 38.08121 | 9.84308 | 35298 ft | 429 kts | 332° |
| 2026-05-07 11:47 | 38.11010 | 9.83382 | 35525 ft | 428 kts | 331° |
| 2026-05-07 11:47 | 38.13911 | 9.82451 | 35742 ft | 427 kts | 331° |
| 2026-05-07 11:48 | 38.16797 | 9.81523 | 35906 ft | 427 kts | 331° |
| 2026-05-07 11:48 | 38.22543 | 9.79676 | 35943 ft | 426 kts | 331° |
| 2026-05-07 11:49 | 38.28142 | 9.77871 | 35962 ft | 425 kts | 331° |
| 2026-05-07 11:49 | 38.33875 | 9.76030 | 35961 ft | 424 kts | 331° |
| 2026-05-07 11:50 | 38.39606 | 9.74195 | 35961 ft | 423 kts | 331° |
| 2026-05-07 11:50 | 38.45316 | 9.72352 | 35957 ft | 423 kts | 331° |
| 2026-05-07 11:51 | 38.51023 | 9.70514 | 35959 ft | 423 kts | 331° |
| 2026-05-07 11:51 | 38.56703 | 9.68688 | 35958 ft | 423 kts | 331° |
| 2026-05-07 11:52 | 38.62414 | 9.66843 | 35964 ft | 423 kts | 331° |
| 2026-05-07 11:52 | 38.68102 | 9.65002 | 35969 ft | 422 kts | 331° |
| 2026-05-07 11:53 | 38.73804 | 9.63153 | 35964 ft | 422 kts | 330° |
| 2026-05-07 11:53 | 38.79498 | 9.61299 | 35977 ft | 422 kts | 330° |
| 2026-05-07 11:54 | 38.85191 | 9.59454 | 35984 ft | 420 kts | 330° |
| 2026-05-07 11:54 | 38.90863 | 9.57609 | 35973 ft | 420 kts | 330° |
| 2026-05-07 11:55 | 38.96523 | 9.55853 | 35968 ft | 422 kts | 332° |
| 2026-05-07 11:55 | 39.02264 | 9.54164 | 35967 ft | 423 kts | 332° |
| 2026-05-07 11:56 | 39.08000 | 9.52466 | 35971 ft | 422 kts | 332° |
| 2026-05-07 11:56 | 39.13720 | 9.50744 | 35972 ft | 422 kts | 332° |
| 2026-05-07 11:57 | 39.19401 | 9.49018 | 35975 ft | 420 kts | 331° |
| 2026-05-07 11:57 | 39.25101 | 9.47285 | 35968 ft | 421 kts | 331° |
| 2026-05-07 11:58 | 39.30800 | 9.45554 | 35966 ft | 420 kts | 331° |
| 2026-05-07 11:58 | 39.35535 | 9.44120 | 35962 ft | 421 kts | 331° |
| 2026-05-07 11:59 | 39.41245 | 9.42388 | 35964 ft | 420 kts | 331° |
| 2026-05-07 11:59 | 39.46917 | 9.40671 | 35975 ft | 418 kts | 332° |
| 2026-05-07 12:00 | 39.52573 | 9.38951 | 35961 ft | 417 kts | 331° |
| 2026-05-07 12:00 | 39.58225 | 9.37208 | 35952 ft | 417 kts | 331° |
| 2026-05-07 12:01 | 39.63848 | 9.35486 | 35952 ft | 417 kts | 331° |
| 2026-05-07 12:01 | 39.69502 | 9.33750 | 35956 ft | 416 kts | 331° |
| 2026-05-07 12:02 | 39.75145 | 9.32006 | 35956 ft | 417 kts | 331° |
| 2026-05-07 12:02 | 39.80775 | 9.30283 | 35957 ft | 416 kts | 331° |
| 2026-05-07 12:03 | 39.86421 | 9.28538 | 35965 ft | 417 kts | 331° |
| 2026-05-07 12:03 | 39.92044 | 9.26799 | 35962 ft | 416 kts | 331° |
| 2026-05-07 12:04 | 39.97674 | 9.25055 | 35952 ft | 415 kts | 331° |
| 2026-05-07 12:04 | 40.03305 | 9.23305 | 35961 ft | 416 kts | 331° |
| 2026-05-07 12:05 | 40.08901 | 9.21563 | 35942 ft | 415 kts | 332° |
| 2026-05-07 12:05 | 40.14548 | 9.19808 | 35938 ft | 418 kts | 332° |
| 2026-05-07 12:06 | 40.20226 | 9.18043 | 35943 ft | 420 kts | 332° |
| 2026-05-07 12:06 | 40.25919 | 9.16267 | 35941 ft | 419 kts | 332° |
| 2026-05-07 12:07 | 40.31571 | 9.14509 | 35950 ft | 419 kts | 332° |
| 2026-05-07 12:07 | 40.37265 | 9.12726 | 35956 ft | 423 kts | 332° |
| 2026-05-07 12:08 | 40.43003 | 9.10931 | 35961 ft | 422 kts | 332° |
| 2026-05-07 12:08 | 40.48714 | 9.09131 | 35968 ft | 422 kts | 332° |
| 2026-05-07 12:09 | 40.54411 | 9.07329 | 35972 ft | 423 kts | 332° |
| 2026-05-07 12:09 | 40.60146 | 9.05512 | 35975 ft | 424 kts | 333° |
| 2026-05-07 12:10 | 40.65905 | 9.03699 | 35975 ft | 425 kts | 333° |
| 2026-05-07 12:10 | 40.71662 | 9.01883 | 35973 ft | 425 kts | 333° |
| 2026-05-07 12:11 | 40.77402 | 9.00065 | 35973 ft | 427 kts | 333° |
| 2026-05-07 12:11 | 40.83184 | 8.98223 | 35975 ft | 427 kts | 333° |
| 2026-05-07 12:12 | 40.88968 | 8.96380 | 35994 ft | 428 kts | 333° |
| 2026-05-07 12:12 | 40.94765 | 8.94531 | 35985 ft | 428 kts | 334° |
| 2026-05-07 12:13 | 41.00572 | 8.92687 | 35975 ft | 428 kts | 334° |
| 2026-05-07 12:13 | 41.06345 | 8.90845 | 35985 ft | 429 kts | 334° |
| 2026-05-07 12:14 | 41.12162 | 8.88969 | 35979 ft | 431 kts | 334° |
| 2026-05-07 12:14 | 41.17998 | 8.87093 | 35969 ft | 432 kts | 334° |
| 2026-05-07 12:15 | 41.23869 | 8.85197 | 35965 ft | 436 kts | 335° |
| 2026-05-07 12:15 | 41.29689 | 8.83048 | 35969 ft | 431 kts | 331° |
| 2026-05-07 12:16 | 41.35379 | 8.80483 | 35970 ft | 431 kts | 329° |
| 2026-05-07 12:16 | 41.41019 | 8.77825 | 35973 ft | 432 kts | 330° |
| 2026-05-07 12:17 | 41.46742 | 8.75216 | 35974 ft | 435 kts | 331° |
| 2026-05-07 12:17 | 41.52504 | 8.72655 | 35977 ft | 436 kts | 331° |
| 2026-05-07 12:18 | 41.58243 | 8.70105 | 35982 ft | 437 kts | 331° |
| 2026-05-07 12:18 | 41.63983 | 8.67531 | 35981 ft | 436 kts | 331° |
| 2026-05-07 12:19 | 41.69742 | 8.64937 | 35981 ft | 437 kts | 331° |
| 2026-05-07 12:19 | 41.75518 | 8.62325 | 35983 ft | 438 kts | 332° |
| 2026-05-07 12:20 | 41.81292 | 8.59717 | 35985 ft | 438 kts | 332° |
| 2026-05-07 12:20 | 41.87089 | 8.57109 | 35989 ft | 439 kts | 332° |
| 2026-05-07 12:21 | 41.92851 | 8.54504 | 35986 ft | 439 kts | 332° |
| 2026-05-07 12:21 | 41.98643 | 8.51866 | 35980 ft | 439 kts | 332° |
| 2026-05-07 12:22 | 42.04429 | 8.49225 | 35982 ft | 439 kts | 333° |
| 2026-05-07 12:22 | 42.10226 | 8.46577 | 35988 ft | 439 kts | 333° |
| 2026-05-07 12:23 | 42.15982 | 8.43950 | 35988 ft | 440 kts | 333° |
| 2026-05-07 12:23 | 42.21787 | 8.41290 | 35992 ft | 440 kts | 333° |
| 2026-05-07 12:24 | 42.27600 | 8.38632 | 35989 ft | 440 kts | 333° |
| 2026-05-07 12:24 | 42.33341 | 8.35819 | 35995 ft | 433 kts | 326° |
| 2026-05-07 12:25 | 42.38551 | 8.31972 | 35990 ft | 428 kts | 322° |
| 2026-05-07 12:25 | 42.43765 | 8.28055 | 35994 ft | 428 kts | 322° |
| 2026-05-07 12:26 | 42.48991 | 8.24141 | 35993 ft | 428 kts | 323° |
| 2026-05-07 12:26 | 42.54214 | 8.20227 | 35993 ft | 428 kts | 323° |
| 2026-05-07 12:27 | 42.59426 | 8.16306 | 35998 ft | 428 kts | 322° |
| 2026-05-07 12:27 | 42.64607 | 8.12390 | 35999 ft | 429 kts | 322° |
| 2026-05-07 12:28 | 42.69825 | 8.08445 | 36008 ft | 429 kts | 322° |
| 2026-05-07 12:28 | 42.75053 | 8.04487 | 36010 ft | 429 kts | 322° |
| 2026-05-07 12:29 | 42.80270 | 8.00523 | 36010 ft | 429 kts | 322° |
| 2026-05-07 12:29 | 42.85482 | 7.96556 | 36009 ft | 429 kts | 323° |
| 2026-05-07 12:30 | 42.90692 | 7.92584 | 36008 ft | 428 kts | 322° |
| 2026-05-07 12:30 | 42.95867 | 7.88631 | 36008 ft | 428 kts | 323° |
| 2026-05-07 12:31 | 43.01068 | 7.84651 | 36005 ft | 428 kts | 323° |
| 2026-05-07 12:31 | 43.06278 | 7.80656 | 36006 ft | 428 kts | 323° |
| 2026-05-07 12:32 | 43.11486 | 7.76654 | 36008 ft | 428 kts | 323° |
| 2026-05-07 12:32 | 43.16648 | 7.72664 | 36009 ft | 429 kts | 323° |
| 2026-05-07 12:33 | 43.24445 | 7.66612 | 36009 ft | 428 kts | 323° |
| 2026-05-07 12:33 | 43.29644 | 7.62581 | 36009 ft | 428 kts | 323° |
| 2026-05-07 12:34 | 43.34791 | 7.58594 | 36011 ft | 428 kts | 323° |
| 2026-05-07 12:34 | 43.39976 | 7.54565 | 36008 ft | 427 kts | 323° |
| 2026-05-07 12:35 | 43.45086 | 7.50574 | 36004 ft | 427 kts | 323° |
| 2026-05-07 12:35 | 43.50263 | 7.46521 | 36001 ft | 427 kts | 323° |
| 2026-05-07 12:36 | 43.55433 | 7.42471 | 36002 ft | 427 kts | 323° |
| 2026-05-07 12:36 | 43.60597 | 7.38418 | 35997 ft | 426 kts | 323° |
| 2026-05-07 12:37 | 43.65636 | 7.34235 | 35992 ft | 424 kts | 320° |
| 2026-05-07 12:37 | 43.70517 | 7.29706 | 35996 ft | 422 kts | 318° |
| 2026-05-07 12:38 | 43.75371 | 7.25103 | 35993 ft | 422 kts | 319° |
| 2026-05-07 12:38 | 43.80257 | 7.20562 | 35994 ft | 423 kts | 319° |
| 2026-05-07 12:39 | 43.85179 | 7.16062 | 36000 ft | 424 kts | 319° |
| 2026-05-07 12:39 | 43.89277 | 7.12313 | 35999 ft | 424 kts | 319° |
| 2026-05-07 12:40 | 43.95003 | 7.07031 | 36001 ft | 424 kts | 319° |
| 2026-05-07 12:40 | 43.99087 | 7.03245 | 36004 ft | 424 kts | 319° |
| 2026-05-07 12:41 | 44.03991 | 6.98695 | 36001 ft | 424 kts | 320° |
| 2026-05-07 12:41 | 44.08898 | 6.94135 | 35999 ft | 424 kts | 320° |
| 2026-05-07 12:42 | 44.13811 | 6.89564 | 36002 ft | 424 kts | 320° |
| 2026-05-07 12:42 | 44.18681 | 6.85008 | 36004 ft | 424 kts | 320° |
| 2026-05-07 12:43 | 44.23570 | 6.80426 | 36000 ft | 423 kts | 320° |
| 2026-05-07 12:43 | 44.28461 | 6.75843 | 36002 ft | 423 kts | 320° |
| 2026-05-07 12:44 | 44.33340 | 6.71258 | 36002 ft | 422 kts | 320° |
| 2026-05-07 12:44 | 44.38235 | 6.66648 | 35999 ft | 422 kts | 320° |
| 2026-05-07 12:45 | 44.43088 | 6.62071 | 36002 ft | 423 kts | 320° |
| 2026-05-07 12:45 | 44.47971 | 6.57453 | 35995 ft | 422 kts | 320° |
| 2026-05-07 12:46 | 44.52853 | 6.52829 | 35998 ft | 423 kts | 320° |
| 2026-05-07 12:46 | 44.57702 | 6.48245 | 35997 ft | 423 kts | 320° |
| 2026-05-07 12:47 | 44.62585 | 6.43613 | 35997 ft | 423 kts | 320° |
| 2026-05-07 12:47 | 44.67453 | 6.38970 | 36003 ft | 423 kts | 320° |
| 2026-05-07 12:48 | 44.72298 | 6.34326 | 36001 ft | 423 kts | 320° |
| 2026-05-07 12:48 | 44.77171 | 6.29671 | 36001 ft | 423 kts | 320° |
| 2026-05-07 12:49 | 44.82040 | 6.25016 | 36002 ft | 422 kts | 320° |
| 2026-05-07 12:49 | 44.86896 | 6.20348 | 36000 ft | 422 kts | 320° |
| 2026-05-07 12:50 | 44.91718 | 6.15705 | 36001 ft | 422 kts | 320° |
| 2026-05-07 12:50 | 44.96568 | 6.11034 | 35994 ft | 422 kts | 320° |
| 2026-05-07 12:51 | 45.01423 | 6.06350 | 36006 ft | 423 kts | 320° |
| 2026-05-07 12:51 | 45.06265 | 6.01651 | 36000 ft | 421 kts | 320° |
| 2026-05-07 12:52 | 45.11100 | 5.96964 | 35998 ft | 420 kts | 320° |
| 2026-05-07 12:52 | 45.15941 | 5.92268 | 36003 ft | 421 kts | 320° |
| 2026-05-07 12:53 | 45.20741 | 5.87578 | 36006 ft | 422 kts | 320° |
| 2026-05-07 12:53 | 45.25575 | 5.82851 | 36008 ft | 421 kts | 320° |
| 2026-05-07 12:54 | 45.30398 | 5.78131 | 36001 ft | 421 kts | 320° |
| 2026-05-07 12:54 | 45.35228 | 5.73401 | 35996 ft | 421 kts | 320° |
| 2026-05-07 12:55 | 45.40049 | 5.68663 | 36001 ft | 421 kts | 320° |
| 2026-05-07 12:55 | 45.44867 | 5.63921 | 36001 ft | 420 kts | 320° |
| 2026-05-07 12:56 | 45.49646 | 5.59200 | 36003 ft | 420 kts | 320° |
| 2026-05-07 12:56 | 45.54456 | 5.54446 | 36003 ft | 420 kts | 320° |
| 2026-05-07 12:57 | 45.59317 | 5.49793 | 36001 ft | 421 kts | 323° |
| 2026-05-07 12:57 | 45.64329 | 5.45373 | 36008 ft | 423 kts | 324° |
| 2026-05-07 12:58 | 45.69347 | 5.40989 | 36004 ft | 422 kts | 323° |
| 2026-05-07 12:58 | 45.74311 | 5.36563 | 36009 ft | 422 kts | 323° |
| 2026-05-07 12:59 | 45.79296 | 5.32072 | 36013 ft | 422 kts | 323° |
| 2026-05-07 12:59 | 45.84277 | 5.27581 | 36017 ft | 422 kts | 323° |
| 2026-05-07 13:00 | 45.89220 | 5.23125 | 36019 ft | 422 kts | 323° |
| 2026-05-07 13:00 | 45.94197 | 5.18625 | 36020 ft | 422 kts | 323° |
| 2026-05-07 13:01 | 45.98158 | 5.15211 | 36020 ft | 423 kts | 325° |
| 2026-05-07 13:01 | 46.01519 | 5.12492 | 36020 ft | 424 kts | 327° |
| 2026-05-07 13:02 | 46.06694 | 5.08384 | 36021 ft | 424 kts | 327° |
| 2026-05-07 13:02 | 46.11841 | 5.04238 | 36021 ft | 424 kts | 327° |
| 2026-05-07 13:03 | 46.16970 | 5.00036 | 36025 ft | 424 kts | 326° |
| 2026-05-07 13:03 | 46.17536 | 4.99570 | 36025 ft | 424 kts | 326° |
| 2026-05-07 13:04 | 46.21299 | 4.96470 | 36027 ft | 424 kts | 326° |
| 2026-05-07 13:05 | 46.21651 | 4.96180 | 36027 ft | 424 kts | 326° |
| 2026-05-07 13:05 | 46.25467 | 4.93036 | 36028 ft | 424 kts | 326° |
| 2026-05-07 13:06 | 46.30563 | 4.88840 | 36028 ft | 424 kts | 326° |
| 2026-05-07 13:06 | 46.35698 | 4.84599 | 36031 ft | 424 kts | 326° |
| 2026-05-07 13:07 | 46.40827 | 4.80358 | 36031 ft | 424 kts | 326° |
| 2026-05-07 13:07 | 46.45965 | 4.76095 | 36028 ft | 424 kts | 326° |
| 2026-05-07 13:08 | 46.51058 | 4.71863 | 36028 ft | 425 kts | 326° |
| 2026-05-07 13:08 | 46.56192 | 4.67591 | 36030 ft | 425 kts | 326° |
| 2026-05-07 13:09 | 46.61336 | 4.63305 | 36027 ft | 425 kts | 326° |
| 2026-05-07 13:09 | 46.66464 | 4.59020 | 36027 ft | 425 kts | 326° |
| 2026-05-07 13:10 | 46.71570 | 4.54738 | 36029 ft | 425 kts | 326° |
| 2026-05-07 13:10 | 46.76696 | 4.50434 | 36032 ft | 424 kts | 326° |
| 2026-05-07 13:11 | 46.81786 | 4.46142 | 36031 ft | 424 kts | 326° |
| 2026-05-07 13:11 | 46.86898 | 4.41821 | 36032 ft | 425 kts | 326° |
| 2026-05-07 13:12 | 46.92023 | 4.37475 | 36036 ft | 425 kts | 326° |
| 2026-05-07 13:12 | 46.97155 | 4.33126 | 36035 ft | 426 kts | 326° |
| 2026-05-07 13:13 | 47.02263 | 4.28793 | 36037 ft | 426 kts | 327° |
| 2026-05-07 13:13 | 47.07388 | 4.24425 | 36039 ft | 426 kts | 326° |
| 2026-05-07 13:14 | 47.12522 | 4.20047 | 36050 ft | 426 kts | 327° |
| 2026-05-07 13:14 | 47.17617 | 4.15693 | 36044 ft | 426 kts | 327° |
| 2026-05-07 13:15 | 47.22744 | 4.11294 | 36057 ft | 426 kts | 327° |
| 2026-05-07 13:15 | 47.27863 | 4.06901 | 36053 ft | 426 kts | 327° |
| 2026-05-07 13:16 | 47.32989 | 4.02484 | 36049 ft | 426 kts | 327° |
| 2026-05-07 13:16 | 47.38119 | 3.98062 | 36061 ft | 426 kts | 327° |
| 2026-05-07 13:17 | 47.43239 | 3.93639 | 36053 ft | 426 kts | 327° |
| 2026-05-07 13:17 | 47.48362 | 3.89200 | 36045 ft | 426 kts | 327° |
| 2026-05-07 13:18 | 47.53445 | 3.84777 | 36048 ft | 426 kts | 327° |
| 2026-05-07 13:18 | 47.58570 | 3.80311 | 36056 ft | 426 kts | 327° |
| 2026-05-07 13:19 | 47.63692 | 3.75837 | 36060 ft | 427 kts | 327° |
| 2026-05-07 13:19 | 47.68805 | 3.71361 | 36056 ft | 427 kts | 327° |
| 2026-05-07 13:20 | 47.73891 | 3.66910 | 36068 ft | 427 kts | 327° |
| 2026-05-07 13:20 | 47.79009 | 3.62412 | 36061 ft | 427 kts | 327° |
| 2026-05-07 13:21 | 47.84116 | 3.57898 | 36061 ft | 427 kts | 327° |
| 2026-05-07 13:21 | 47.89225 | 3.53388 | 36064 ft | 427 kts | 327° |
| 2026-05-07 13:22 | 47.94305 | 3.48901 | 36066 ft | 427 kts | 326° |
| 2026-05-07 13:22 | 47.99415 | 3.44372 | 36068 ft | 427 kts | 327° |
| 2026-05-07 13:23 | 48.03664 | 3.40595 | 36070 ft | 427 kts | 327° |
| 2026-05-07 13:23 | 48.08771 | 3.36042 | 36071 ft | 427 kts | 327° |
| 2026-05-07 13:24 | 48.13876 | 3.31484 | 36065 ft | 427 kts | 327° |
| 2026-05-07 13:24 | 48.18995 | 3.26906 | 36064 ft | 428 kts | 327° |
| 2026-05-07 13:25 | 48.24078 | 3.22345 | 36063 ft | 428 kts | 326° |
| 2026-05-07 13:25 | 48.29187 | 3.17746 | 36063 ft | 428 kts | 326° |
| 2026-05-07 13:26 | 48.34295 | 3.13133 | 36058 ft | 428 kts | 326° |
| 2026-05-07 13:26 | 48.39411 | 3.08512 | 36061 ft | 428 kts | 326° |
| 2026-05-07 13:27 | 48.44496 | 3.03911 | 36054 ft | 429 kts | 326° |
| 2026-05-07 13:27 | 48.49610 | 2.99267 | 36056 ft | 429 kts | 326° |
| 2026-05-07 13:28 | 48.54724 | 2.94607 | 36064 ft | 429 kts | 326° |
| 2026-05-07 13:28 | 48.59853 | 2.89934 | 36057 ft | 430 kts | 326° |
| 2026-05-07 13:29 | 48.64975 | 2.85251 | 36050 ft | 430 kts | 326° |
| 2026-05-07 13:29 | 48.69962 | 2.80675 | 36057 ft | 430 kts | 326° |
| 2026-05-07 13:30 | 48.75083 | 2.75974 | 36047 ft | 430 kts | 326° |
| 2026-05-07 13:30 | 48.80211 | 2.71250 | 36046 ft | 430 kts | 326° |
| 2026-05-07 13:31 | 48.85298 | 2.66544 | 36056 ft | 430 kts | 326° |
| 2026-05-07 13:31 | 48.90416 | 2.61813 | 36052 ft | 430 kts | 326° |
| 2026-05-07 13:32 | 48.95532 | 2.57070 | 36046 ft | 431 kts | 326° |
| 2026-05-07 13:32 | 49.00651 | 2.52314 | 36050 ft | 431 kts | 326° |
| 2026-05-07 13:33 | 49.05773 | 2.47536 | 36040 ft | 431 kts | 326° |
| 2026-05-07 13:33 | 49.10864 | 2.42780 | 36054 ft | 431 kts | 326° |
| 2026-05-07 13:34 | 49.18538 | 2.35600 | 36047 ft | 431 kts | 326° |
| 2026-05-07 13:35 | 49.23653 | 2.30791 | 36061 ft | 431 kts | 326° |
| 2026-05-07 13:35 | 49.28741 | 2.25988 | 36051 ft | 432 kts | 326° |
| 2026-05-07 13:36 | 49.33856 | 2.21149 | 36066 ft | 432 kts | 326° |
| 2026-05-07 13:36 | 49.38978 | 2.16300 | 36060 ft | 432 kts | 326° |
| 2026-05-07 13:37 | 49.44095 | 2.11431 | 36066 ft | 432 kts | 326° |
| 2026-05-07 13:37 | 49.49175 | 2.06585 | 36068 ft | 432 kts | 326° |
| 2026-05-07 13:38 | 49.54305 | 2.01704 | 36073 ft | 433 kts | 326° |
| 2026-05-07 13:38 | 49.59428 | 1.96811 | 36074 ft | 432 kts | 326° |
| 2026-05-07 13:39 | 49.64512 | 1.91927 | 36073 ft | 433 kts | 326° |
| 2026-05-07 13:39 | 49.69625 | 1.87008 | 35944 ft | 434 kts | 326° |
| 2026-05-07 13:39 | 49.72187 | 1.84542 | 35691 ft | 433 kts | 325° |
| 2026-05-07 13:40 | 49.74739 | 1.82088 | 35442 ft | 431 kts | 326° |
| 2026-05-07 13:40 | 49.77278 | 1.79645 | 35191 ft | 428 kts | 325° |
| 2026-05-07 13:40 | 49.79793 | 1.77219 | 34758 ft | 424 kts | 325° |
| 2026-05-07 13:40 | 49.82288 | 1.74803 | 34239 ft | 422 kts | 325° |
| 2026-05-07 13:41 | 49.84767 | 1.72394 | 33723 ft | 419 kts | 325° |
| 2026-05-07 13:41 | 49.87234 | 1.69995 | 33219 ft | 417 kts | 325° |
| 2026-05-07 13:41 | 49.89683 | 1.67616 | 32701 ft | 414 kts | 325° |
| 2026-05-07 13:41 | 49.92120 | 1.65248 | 32223 ft | 411 kts | 325° |
| 2026-05-07 13:42 | 49.94539 | 1.62891 | 31728 ft | 408 kts | 325° |
| 2026-05-07 13:42 | 49.96905 | 1.60582 | 31249 ft | 406 kts | 325° |
| 2026-05-07 13:42 | 49.99316 | 1.58225 | 30767 ft | 403 kts | 325° |
| 2026-05-07 13:42 | 50.01650 | 1.55941 | 30306 ft | 400 kts | 325° |
| 2026-05-07 13:43 | 50.03989 | 1.53648 | 29846 ft | 396 kts | 325° |
| 2026-05-07 13:43 | 50.06321 | 1.51361 | 29399 ft | 393 kts | 325° |
| 2026-05-07 13:43 | 50.08620 | 1.49103 | 28958 ft | 389 kts | 326° |
| 2026-05-07 13:43 | 50.10901 | 1.46866 | 28521 ft | 385 kts | 326° |
| 2026-05-07 13:44 | 50.13166 | 1.44646 | 28104 ft | 382 kts | 326° |
| 2026-05-07 13:44 | 50.15405 | 1.42450 | 27677 ft | 378 kts | 326° |
| 2026-05-07 13:44 | 50.17617 | 1.40273 | 27252 ft | 374 kts | 326° |
| 2026-05-07 13:44 | 50.19785 | 1.38132 | 26832 ft | 371 kts | 326° |
| 2026-05-07 13:45 | 50.21958 | 1.35978 | 26391 ft | 368 kts | 325° |
| 2026-05-07 13:45 | 50.24113 | 1.33837 | 25975 ft | 365 kts | 326° |
| 2026-05-07 13:45 | 50.26253 | 1.31711 | 25530 ft | 363 kts | 326° |
| 2026-05-07 13:45 | 50.28377 | 1.29603 | 25091 ft | 360 kts | 326° |
| 2026-05-07 13:46 | 50.30489 | 1.27511 | 24630 ft | 358 kts | 326° |
| 2026-05-07 13:46 | 50.32571 | 1.25450 | 24186 ft | 357 kts | 326° |
| 2026-05-07 13:46 | 50.34672 | 1.23369 | 23732 ft | 355 kts | 326° |
| 2026-05-07 13:46 | 50.36752 | 1.21305 | 23262 ft | 353 kts | 326° |
| 2026-05-07 13:47 | 50.38822 | 1.19247 | 22827 ft | 352 kts | 326° |
| 2026-05-07 13:47 | 50.40887 | 1.17190 | 22379 ft | 350 kts | 326° |
| 2026-05-07 13:47 | 50.42943 | 1.15137 | 21940 ft | 349 kts | 326° |
| 2026-05-07 13:47 | 50.44987 | 1.13093 | 21508 ft | 348 kts | 326° |
| 2026-05-07 13:48 | 50.46994 | 1.11080 | 21080 ft | 346 kts | 326° |
| 2026-05-07 13:48 | 50.49019 | 1.09046 | 20653 ft | 344 kts | 326° |
| 2026-05-07 13:48 | 50.51014 | 1.06982 | 20231 ft | 342 kts | 321° |
| 2026-05-07 13:48 | 50.52754 | 1.04468 | 19817 ft | 338 kts | 311° |
| 2026-05-07 13:49 | 50.54353 | 1.01763 | 19400 ft | 336 kts | 311° |
| 2026-05-07 13:49 | 50.55947 | 0.99073 | 19006 ft | 334 kts | 311° |
| 2026-05-07 13:49 | 50.57531 | 0.96404 | 18599 ft | 333 kts | 311° |
| 2026-05-07 13:49 | 50.59107 | 0.93746 | 18194 ft | 331 kts | 311° |
| 2026-05-07 13:50 | 50.60679 | 0.91093 | 17790 ft | 330 kts | 311° |
| 2026-05-07 13:50 | 50.62246 | 0.88446 | 17388 ft | 329 kts | 311° |
| 2026-05-07 13:50 | 50.63801 | 0.85814 | 16992 ft | 328 kts | 311° |
| 2026-05-07 13:50 | 50.65332 | 0.83221 | 16593 ft | 326 kts | 311° |
| 2026-05-07 13:51 | 50.66881 | 0.80596 | 16213 ft | 325 kts | 311° |
| 2026-05-07 13:51 | 50.68386 | 0.77949 | 15914 ft | 321 kts | 309° |
| 2026-05-07 13:51 | 50.69795 | 0.75265 | 15765 ft | 315 kts | 307° |
| 2026-05-07 13:51 | 50.71154 | 0.72570 | 15580 ft | 313 kts | 307° |
| 2026-05-07 13:52 | 50.72499 | 0.69869 | 15393 ft | 312 kts | 307° |
| 2026-05-07 13:52 | 50.73840 | 0.67182 | 15209 ft | 311 kts | 307° |
| 2026-05-07 13:52 | 50.75169 | 0.64533 | 15026 ft | 310 kts | 307° |
| 2026-05-07 13:52 | 50.76516 | 0.61872 | 14842 ft | 310 kts | 307° |
| 2026-05-07 13:53 | 50.77865 | 0.59219 | 14657 ft | 309 kts | 307° |
| 2026-05-07 13:53 | 50.79207 | 0.56580 | 14474 ft | 308 kts | 308° |
| 2026-05-07 13:53 | 50.80548 | 0.53935 | 14293 ft | 308 kts | 307° |
| 2026-05-07 13:53 | 50.81886 | 0.51293 | 14108 ft | 307 kts | 307° |
| 2026-05-07 13:54 | 50.83227 | 0.48649 | 13715 ft | 309 kts | 308° |
| 2026-05-07 13:54 | 50.84568 | 0.46007 | 13419 ft | 305 kts | 308° |
| 2026-05-07 13:54 | 50.85902 | 0.43373 | 12896 ft | 305 kts | 308° |
| 2026-05-07 13:54 | 50.87201 | 0.40793 | 12418 ft | 302 kts | 308° |
| 2026-05-07 13:55 | 50.88508 | 0.38199 | 11970 ft | 299 kts | 308° |
| 2026-05-07 13:55 | 50.89809 | 0.35622 | 11542 ft | 299 kts | 308° |
| 2026-05-07 13:55 | 50.91109 | 0.33042 | 11181 ft | 297 kts | 308° |
| 2026-05-07 13:55 | 50.92395 | 0.30488 | 10699 ft | 296 kts | 308° |
| 2026-05-07 13:56 | 50.93643 | 0.27915 | 10269 ft | 293 kts | 302° |
| 2026-05-07 13:56 | 50.94532 | 0.25019 | 9848 ft | 293 kts | 287° |
| 2026-05-07 13:56 | 50.94945 | 0.21878 | 9486 ft | 291 kts | 277° |
| 2026-05-07 13:56 | 50.95221 | 0.18716 | 9033 ft | 287 kts | 277° |
| 2026-05-07 13:57 | 50.95494 | 0.15609 | 8542 ft | 282 kts | 277° |
| 2026-05-07 13:57 | 50.95766 | 0.12507 | 8135 ft | 284 kts | 277° |
| 2026-05-07 13:57 | 50.96035 | 0.09442 | 7734 ft | 284 kts | 277° |
| 2026-05-07 13:57 | 50.96309 | 0.06346 | 7381 ft | 282 kts | 277° |
| 2026-05-07 13:58 | 50.96580 | 0.03270 | 6949 ft | 279 kts | 277° |
| 2026-05-07 13:58 | 50.96841 | 0.00262 | 6537 ft | 275 kts | 277° |
| 2026-05-07 13:58 | 50.97102 | -0.02749 | 6177 ft | 272 kts | 277° |
| 2026-05-07 13:58 | 50.97350 | -0.05601 | 6051 ft | 250 kts | 277° |
| 2026-05-07 13:59 | 50.97577 | -0.08266 | 5746 ft | 239 kts | 277° |
| 2026-05-07 13:59 | 50.97799 | -0.10865 | 5278 ft | 237 kts | 278° |
| 2026-05-07 13:59 | 50.98021 | -0.13450 | 4811 ft | 235 kts | 277° |
| 2026-05-07 13:59 | 50.98243 | -0.16043 | 4432 ft | 237 kts | 277° |
| 2026-05-07 14:00 | 50.98467 | -0.18645 | 4082 ft | 238 kts | 278° |
| 2026-05-07 14:00 | 50.98839 | -0.21185 | 3849 ft | 234 kts | 284° |
| 2026-05-07 14:00 | 50.99246 | -0.23695 | 3696 ft | 235 kts | 284° |
| 2026-05-07 14:00 | 50.99646 | -0.26210 | 3537 ft | 235 kts | 284° |
| 2026-05-07 14:01 | 51.00045 | -0.28719 | 3374 ft | 234 kts | 283° |
| 2026-05-07 14:01 | 51.00441 | -0.31219 | 3201 ft | 233 kts | 284° |
| 2026-05-07 14:01 | 51.00838 | -0.33722 | 3079 ft | 233 kts | 284° |
| 2026-05-07 14:01 | 51.01232 | -0.36175 | 2999 ft | 223 kts | 284° |
| 2026-05-07 14:02 | 51.01607 | -0.38520 | 3009 ft | 217 kts | 284° |
| 2026-05-07 14:02 | 51.01986 | -0.40820 | 3005 ft | 214 kts | 289° |
| 2026-05-07 14:02 | 51.02734 | -0.42752 | 3004 ft | 207 kts | 317° |
| 2026-05-07 14:02 | 51.03951 | -0.43883 | 3034 ft | 201 kts | 346° |
| 2026-05-07 14:03 | 51.05302 | -0.44221 | 3042 ft | 194 kts | 354° |
| 2026-05-07 14:03 | 51.06629 | -0.44503 | 3019 ft | 192 kts | 353° |
| 2026-05-07 14:03 | 51.07951 | -0.44781 | 3009 ft | 191 kts | 356° |
| 2026-05-07 14:03 | 51.09260 | -0.44609 | 3016 ft | 189 kts | 17° |
| 2026-05-07 14:04 | 51.10443 | -0.43722 | 2996 ft | 188 kts | 37° |
| 2026-05-07 14:04 | 51.11347 | -0.42235 | 2859 ft | 185 kts | 58° |
| 2026-05-07 14:04 | 51.11841 | -0.40394 | 2658 ft | 179 kts | 78° |
| 2026-05-07 14:04 | 51.12107 | -0.38481 | 2448 ft | 176 kts | 79° |
| 2026-05-07 14:05 | 51.12284 | -0.37217 | 2292 ft | 176 kts | 79° |
| 2026-05-07 14:05 | 51.12546 | -0.35343 | 2052 ft | 170 kts | 79° |
| 2026-05-07 14:05 | 51.12865 | -0.33011 | 1762 ft | 151 kts | 79° |
| 2026-05-07 14:05 | 51.13086 | -0.31425 | 1515 ft | 142 kts | 79° |
| 2026-05-07 14:06 | 51.13297 | -0.29913 | 1370 ft | 138 kts | 80° |
| 2026-05-07 14:06 | 51.13439 | -0.28905 | 1261 ft | 137 kts | 79° |
| 2026-05-07 14:06 | 51.13644 | -0.27427 | 1068 ft | 137 kts | 79° |
| 2026-05-07 14:06 | 51.13854 | -0.25955 | 870 ft | 136 kts | 79° |
| 2026-05-07 14:07 | 51.14061 | -0.24482 | 745 ft | 137 kts | 78° |
| 2026-05-07 14:07 | 51.14263 | -0.23004 | 537 ft | 136 kts | 79° |
| 2026-05-07 14:07 | 51.14467 | -0.21532 | 352 ft | 136 kts | 79° |
| 2026-05-07 14:07 | 51.14671 | -0.20065 | 213 ft | 134 kts | 79° |
| 2026-05-07 14:08 | 51.14837 | -0.18835 | 204 ft | 89 kts | 79° |
| 2026-05-07 14:08 | 51.14937 | -0.18128 | 205 ft | 49 kts | 73° |
| 2026-05-07 14:08 | 51.15045 | -0.17819 | 206 ft | 14 kts | 52° |
| 2026-05-07 14:08 | 51.15111 | -0.17757 | 206 ft | 8 kts | 356° |
| 2026-05-07 14:09 | 51.15124 | -0.17758 | 206 ft | 0 kts | 355° |
| 2026-05-07 14:10 | 51.15132 | -0.17760 | 206 ft | 8 kts | 355° |
| 2026-05-07 14:10 | 51.15207 | -0.17774 | 206 ft | 11 kts | 351° |
| 2026-05-07 14:10 | 51.15262 | -0.17725 | 205 ft | 11 kts | 69° |
| 2026-05-07 14:10 | 51.15282 | -0.17587 | 204 ft | 14 kts | 77° |
| 2026-05-07 14:11 | 51.15300 | -0.17432 | 204 ft | 15 kts | 77° |
| 2026-05-07 14:11 | 51.15376 | -0.17378 | 204 ft | 13 kts | 348° |
| 2026-05-07 14:11 | 51.15457 | -0.17408 | 204 ft | 11 kts | 347° |
| 2026-05-07 14:11 | 51.15526 | -0.17437 | 204 ft | 9 kts | 333° |
| 2026-05-07 14:12 | 51.15537 | -0.17517 | 204 ft | 7 kts | 256° |
| 2026-05-07 14:12 | 51.15529 | -0.17587 | 204 ft | 4 kts | 283° |
| 2026-05-07 14:12 | 51.15554 | -0.17610 | 204 ft | 4 kts | 339° |
| 2026-05-07 14:12 | 51.15577 | -0.17617 | 204 ft | 3 kts | 348° |
| 2026-05-07 14:13 | 51.15588 | -0.17621 | 204 ft | 0 kts | 348° |